Time;durP1;ratioP1;P1;durP2;ratioP2;P2;SDS_P1;SDS_P2;PMS_P1;PMS_P2;Temp;Humidity;BMP_temperature;BMP_pressure;BME280_temperature;BME280_humidity;BME280_pressure;Samples;Min_cycle;Max_cycle;Signal;HPM_P1;HPM_P2
2021/05/17 00:02:21;;;;;;;3.30;2.67;;;11.20;99.90;;;;;;4714905;30;20044;-78
2021/05/17 00:04:49;;;;;;;5.35;3.95;;;11.20;99.90;;;;;;4727794;30;20390;-79
2021/05/17 00:07:16;;;;;;;6.35;3.10;;;11.20;99.90;;;;;;4726244;30;20063;-80
2021/05/17 00:09:44;;;;;;;8.45;4.43;;;11.10;99.90;;;;;;4715976;30;20055;-79
2021/05/17 00:12:11;;;;;;;5.95;3.58;;;11.10;99.90;;;;;;4744291;30;20485;-79
2021/05/17 00:14:39;;;;;;;5.80;2.90;;;11.10;99.90;;;;;;4728632;30;20056;-79
2021/05/17 00:17:06;;;;;;;5.05;2.65;;;11.10;99.90;;;;;;4715245;30;20040;-80
2021/05/17 00:19:33;;;;;;;4.25;2.60;;;11.10;99.90;;;;;;4731113;30;20056;-80
2021/05/17 00:22:00;;;;;;;3.33;1.98;;;11.00;99.90;;;;;;4729306;30;20048;-80
2021/05/17 00:24:27;;;;;;;4.47;2.33;;;11.00;99.90;;;;;;4733819;30;20912;-79
2021/05/17 00:27:04;;;;;;;4.00;1.88;;;11.00;99.90;;;;;;4744051;30;20056;-80
2021/05/17 00:29:31;;;;;;;3.60;1.85;;;11.00;99.90;;;;;;4715471;30;20172;-80
2021/05/17 00:32:03;;;;;;;2.67;1.33;;;11.00;99.90;;;;;;4728666;30;20040;-82
2021/05/17 00:34:30;;;;;;;5.18;1.85;;;10.90;99.90;;;;;;4734135;30;20063;-79
2021/05/17 00:36:57;;;;;;;3.70;1.63;;;10.90;99.90;;;;;;4725645;30;20036;-80
2021/05/17 00:39:24;;;;;;;6.88;2.38;;;10.90;99.90;;;;;;4729271;30;20056;-79
2021/05/17 00:41:50;;;;;;;2.80;1.65;;;10.90;99.90;;;;;;4743453;30;20628;-80
2021/05/17 00:44:18;;;;;;;3.78;1.70;;;10.80;99.90;;;;;;4729148;30;20044;-79
2021/05/17 00:46:45;;;;;;;3.55;1.38;;;10.80;99.90;;;;;;4728223;30;20044;-79
2021/05/17 00:49:12;;;;;;;2.55;1.35;;;10.80;99.90;;;;;;4731504;30;20040;-80
2021/05/17 00:51:39;;;;;;;3.78;1.52;;;10.80;99.90;;;;;;4728444;30;20056;-80
2021/05/17 00:54:06;;;;;;;2.47;1.45;;;10.70;99.90;;;;;;4707293;30;20051;-81
2021/05/17 00:56:33;;;;;;;3.78;1.85;;;10.70;99.90;;;;;;4744628;30;20048;-79
2021/05/17 00:59:01;;;;;;;3.65;2.05;;;10.70;99.90;;;;;;4744888;30;20092;-81
2021/05/17 01:01:29;;;;;;;3.83;1.80;;;10.60;99.90;;;;;;4721225;30;20416;-82
2021/05/17 01:03:56;;;;;;;3.65;2.40;;;10.70;99.90;;;;;;4732326;30;20060;-82
2021/05/17 01:06:31;;;;;;;3.15;2.08;;;10.70;99.90;;;;;;4743664;30;20048;-80
2021/05/17 01:08:59;;;;;;;4.18;2.85;;;10.70;99.90;;;;;;4715035;30;20048;-80
2021/05/17 01:11:28;;;;;;;4.30;2.47;;;10.70;99.90;;;;;;4744363;30;20404;-80
2021/05/17 01:14:02;;;;;;;3.58;2.78;;;10.70;99.90;;;;;;4732133;30;20040;-79
2021/05/17 01:16:29;;;;;;;4.22;2.85;;;10.70;99.90;;;;;;4715085;30;20036;-79
2021/05/17 01:18:56;;;;;;;3.40;2.72;;;10.80;99.90;;;;;;4718493;30;20040;-79
2021/05/17 01:21:29;;;;;;;4.47;3.10;;;10.80;99.90;;;;;;4728373;30;20044;-77
2021/05/17 01:23:57;;;;;;;3.20;2.90;;;10.80;99.90;;;;;;4744606;30;20424;-78
2021/05/17 01:26:31;;;;;;;7.00;4.05;;;10.80;99.90;;;;;;4728849;30;20052;-78
2021/05/17 01:29:05;;;;;;;4.20;3.38;;;10.80;99.90;;;;;;4717530;30;20047;-78
2021/05/17 01:31:37;;;;;;;4.68;3.60;;;10.80;99.90;;;;;;4734151;30;20059;-80
2021/05/17 01:34:07;;;;;;;7.05;5.05;;;10.80;99.90;;;;;;4717861;30;20056;-79
2021/05/17 01:36:36;;;;;;;4.32;3.55;;;10.80;99.90;;;;;;4717646;30;20397;-79
2021/05/17 01:39:04;;;;;;;7.13;4.50;;;10.80;99.90;;;;;;4725590;30;20059;-78
2021/05/17 01:41:31;;;;;;;5.13;4.00;;;10.80;99.90;;;;;;4728291;30;20048;-78
2021/05/17 01:43:58;;;;;;;5.45;4.40;;;10.80;99.90;;;;;;4744364;30;20051;-79
2021/05/17 01:46:29;;;;;;;7.00;4.68;;;10.80;99.90;;;;;;4718995;30;20056;-79
2021/05/17 01:49:00;;;;;;;5.03;3.38;;;10.80;99.90;;;;;;4716355;30;20051;-77
2021/05/17 01:51:28;;;;;;;8.13;4.50;;;10.80;99.90;;;;;;4712357;30;20400;-79
2021/05/17 01:53:58;;;;;;;5.25;3.92;;;10.80;99.90;;;;;;4731264;30;20055;-76
2021/05/17 01:56:26;;;;;;;9.35;4.35;;;10.80;99.90;;;;;;4731453;30;20047;-78
2021/05/17 01:58:59;;;;;;;7.15;4.57;;;10.80;99.90;;;;;;4742170;30;20539;-77
2021/05/17 02:01:26;;;;;;;8.07;4.13;;;10.80;99.90;;;;;;4713194;30;20069;-77
2021/05/17 02:03:52;;;;;;;10.27;4.10;;;10.80;99.90;;;;;;4726892;30;20516;-79
2021/05/17 02:06:19;;;;;;;5.72;3.00;;;10.80;99.90;;;;;;4725055;30;20056;-78
2021/05/17 02:08:48;;;;;;;6.07;3.45;;;10.80;99.90;;;;;;4701229;30;20049;-79
2021/05/17 02:11:21;;;;;;;5.43;3.30;;;10.80;99.90;;;;;;4727567;30;20043;-78
2021/05/17 02:13:58;;;;;;;5.32;3.85;;;10.70;99.90;;;;;;4714592;30;20055;-79
2021/05/17 02:16:24;;;;;;;8.05;4.15;;;10.80;99.90;;;;;;4716971;30;20063;-78
2021/05/17 02:18:51;;;;;;;4.82;3.65;;;10.80;99.90;;;;;;4714000;30;20527;-78
2021/05/17 02:21:20;;;;;;;6.88;4.00;;;10.80;99.90;;;;;;4713232;30;20051;-78
2021/05/17 02:23:47;;;;;;;6.45;3.55;;;10.80;99.90;;;;;;4728679;30;20056;-79
2021/05/17 02:26:13;;;;;;;7.43;4.10;;;10.90;99.90;;;;;;4716248;30;20044;-78
2021/05/17 02:28:44;;;;;;;6.18;4.93;;;10.90;99.90;;;;;;4715035;30;20040;-78
2021/05/17 02:31:11;;;;;;;6.43;4.30;;;10.90;99.90;;;;;;4694845;30;20048;-80
2021/05/17 02:33:40;;;;;;;6.97;4.47;;;10.90;99.90;;;;;;4728929;30;20052;-80
2021/05/17 02:36:07;;;;;;;5.63;3.70;;;10.90;99.90;;;;;;4711217;30;20058;-80
2021/05/17 02:38:34;;;;;;;4.53;3.70;;;10.90;99.90;;;;;;4718029;30;20060;-79
2021/05/17 02:41:04;;;;;;;6.07;4.38;;;11.00;99.90;;;;;;4744574;30;20409;-79
2021/05/17 02:43:32;;;;;;;5.68;3.70;;;11.00;99.90;;;;;;4735096;30;20055;-78
2021/05/17 02:46:14;;;;;;;5.70;4.55;;;11.00;99.90;;;;;;4731134;30;20544;-79
2021/05/17 02:48:46;;;;;;;7.05;4.43;;;11.00;99.90;;;;;;4733897;30;20052;-80
2021/05/17 02:51:13;;;;;;;5.55;4.32;;;11.00;99.90;;;;;;4716506;30;20630;-78
2021/05/17 02:53:39;;;;;;;4.70;3.85;;;11.00;99.90;;;;;;4731169;30;20166;-80
2021/05/17 02:56:13;;;;;;;5.72;3.92;;;10.90;99.90;;;;;;4720741;30;20495;-79
2021/05/17 02:58:45;;;;;;;5.43;3.95;;;10.90;99.90;;;;;;4733130;30;20032;-79
2021/05/17 03:01:20;;;;;;;4.85;3.58;;;10.90;99.90;;;;;;4734993;30;20048;-78
2021/05/17 03:03:48;;;;;;;;;;;10.90;99.90;;;;;;4722204;30;20045;-79
2021/05/17 03:06:26;;;;;;;5.32;3.15;;;10.90;99.90;;;;;;4717525;30;19925;-79
2021/05/17 03:09:05;;;;;;;4.65;3.92;;;10.80;99.90;;;;;;4711392;30;20063;-80
2021/05/17 03:11:46;;;;;;;5.95;3.55;;;10.80;99.90;;;;;;4719106;30;20066;-78
2021/05/17 03:14:16;;;;;;;7.28;4.07;;;10.80;99.90;;;;;;4717765;30;20044;-76
2021/05/17 03:16:51;;;;;;;9.63;4.72;;;10.80;99.90;;;;;;4702970;30;20401;-79
2021/05/17 03:19:20;;;;;;;8.18;4.13;;;10.70;99.90;;;;;;4722472;30;20393;-78
2021/05/17 03:21:46;;;;;;;8.07;4.18;;;10.80;99.90;;;;;;4719197;30;20040;-77
2021/05/17 03:24:14;;;;;;;6.40;4.05;;;10.80;99.90;;;;;;4722928;30;20066;-77
2021/05/17 03:26:42;;;;;;;5.75;3.92;;;10.80;99.90;;;;;;4706078;30;20048;-78
2021/05/17 03:29:08;;;;;;;6.40;4.40;;;10.80;99.90;;;;;;4720254;30;20071;-78
2021/05/17 03:31:35;;;;;;;5.93;4.00;;;10.90;99.90;;;;;;4701249;30;20055;-78
2021/05/17 03:34:01;;;;;;;5.93;4.03;;;10.90;99.90;;;;;;4722433;30;20040;-78
2021/05/17 03:36:28;;;;;;;5.50;4.15;;;10.90;99.90;;;;;;4701071;30;20033;-78
2021/05/17 03:38:55;;;;;;;8.75;4.95;;;10.90;99.90;;;;;;4713241;30;20456;-79
2021/05/17 03:41:21;;;;;;;8.45;5.00;;;10.90;99.90;;;;;;4718576;30;20488;-79
2021/05/17 03:43:48;;;;;;;7.55;4.03;;;10.90;99.90;;;;;;4716149;30;20040;-80
2021/05/17 03:46:14;;;;;;;6.25;4.18;;;10.90;99.90;;;;;;4729515;30;20040;-80
2021/05/17 03:48:41;;;;;;;6.10;4.65;;;10.90;99.90;;;;;;4729528;30;20059;-78
2021/05/17 03:51:11;;;;;;;7.35;4.65;;;10.90;99.90;;;;;;4713645;30;20534;-78
2021/05/17 03:53:39;;;;;;;6.07;3.97;;;11.00;99.90;;;;;;4713082;30;20040;-79
2021/05/17 03:56:06;;;;;;;8.15;4.90;;;11.00;99.90;;;;;;4716321;30;20048;-80
2021/05/17 03:58:32;;;;;;;7.75;4.85;;;11.00;99.90;;;;;;4730769;30;20044;-78
2021/05/17 04:01:00;;;;;;;6.55;4.40;;;11.10;99.90;;;;;;4716193;30;20048;-80
2021/05/17 04:03:26;;;;;;;6.32;4.00;;;11.10;99.90;;;;;;4717247;30;20075;-79
2021/05/17 04:06:09;;;;;;;7.60;5.10;;;11.10;99.90;;;;;;4699779;30;20055;-78
2021/05/17 04:13:59;;;;;;;9.95;5.00;;;11.10;99.90;;;;;;4728514;30;20049;-80
2021/05/17 04:16:26;;;;;;;10.80;5.32;;;11.20;99.90;;;;;;4703561;30;20051;-79
2021/05/17 04:18:52;;;;;;;7.20;4.40;;;11.20;99.90;;;;;;4729100;30;20048;-80
2021/05/17 04:21:20;;;;;;;9.30;4.97;;;11.20;99.90;;;;;;4713081;30;20040;-79
2021/05/17 04:23:46;;;;;;;11.40;5.18;;;11.10;99.90;;;;;;4689090;30;20044;-79
2021/05/17 04:26:13;;;;;;;9.52;4.57;;;11.20;99.90;;;;;;4709378;30;20420;-80
2021/05/17 04:28:39;;;;;;;8.32;4.57;;;11.20;99.90;;;;;;4715067;30;20048;-78
2021/05/17 04:31:06;;;;;;;6.82;4.38;;;11.20;99.90;;;;;;4727715;30;20055;-81
2021/05/17 04:33:32;;;;;;;6.40;4.13;;;11.20;99.90;;;;;;4715279;30;20044;-80
2021/05/17 04:36:00;;;;;;;7.30;4.95;;;11.20;99.90;;;;;;4687714;30;20048;-80
2021/05/17 04:38:27;;;;;;;7.45;4.80;;;11.20;99.90;;;;;;4732289;30;20052;-79
2021/05/17 04:40:53;;;;;;;8.05;5.25;;;11.30;99.90;;;;;;4718767;30;20416;-81
2021/05/17 04:43:20;;;;;;;10.13;5.88;;;11.30;99.90;;;;;;4716544;30;20063;-79
2021/05/17 04:45:46;;;;;;;8.35;4.68;;;11.30;99.90;;;;;;4703712;30;20495;-79
2021/05/17 04:48:13;;;;;;;8.10;4.88;;;11.40;99.90;;;;;;4728886;30;20064;-79
2021/05/17 04:50:39;;;;;;;7.53;5.30;;;11.40;99.90;;;;;;4710808;30;20064;-78
2021/05/17 04:53:06;;;;;;;8.48;5.57;;;11.30;99.90;;;;;;4712521;30;20042;-80
2021/05/17 04:55:35;;;;;;;8.40;5.18;;;11.40;99.90;;;;;;4714858;30;20051;-80
2021/05/17 04:58:01;;;;;;;10.30;6.05;;;11.40;99.90;;;;;;4722366;30;20059;-78
2021/05/17 05:00:28;;;;;;;6.38;4.93;;;11.50;99.90;;;;;;4701228;30;20050;-76
2021/05/17 05:02:54;;;;;;;7.40;4.97;;;11.50;99.90;;;;;;4743626;30;20060;-77
2021/05/17 05:05:21;;;;;;;11.55;5.85;;;11.50;99.90;;;;;;4713721;30;20044;-78
2021/05/17 05:07:47;;;;;;;9.55;5.55;;;11.50;99.90;;;;;;4727523;30;20070;-77
2021/05/17 05:10:14;;;;;;;8.05;4.90;;;11.50;99.90;;;;;;4727072;30;20062;-76
2021/05/17 05:12:40;;;;;;;9.65;4.93;;;11.40;99.90;;;;;;4728835;30;20451;-76
2021/05/17 05:15:08;;;;;;;9.02;4.78;;;11.40;99.90;;;;;;4725387;30;20036;-75
2021/05/17 05:17:34;;;;;;;7.15;4.05;;;11.40;99.90;;;;;;4741596;30;20413;-76
2021/05/17 05:20:01;;;;;;;10.32;4.97;;;11.50;99.90;;;;;;4739815;30;20072;-76
2021/05/17 05:22:29;;;;;;;7.63;4.43;;;11.50;99.90;;;;;;4724903;30;20850;-78
2021/05/17 05:24:57;;;;;;;6.53;4.68;;;11.50;99.90;;;;;;4711936;30;20048;-76
2021/05/17 05:27:32;;;;;;;8.75;5.20;;;11.50;99.90;;;;;;4741453;30;20044;-76
2021/05/17 05:32:31;;;;;;;8.48;5.03;;;11.50;99.90;;;;;;4725846;30;20044;-76
2021/05/17 05:34:58;;;;;;;7.85;4.65;;;11.60;99.90;;;;;;4739366;30;20044;-76
2021/05/17 05:37:24;;;;;;;8.90;4.75;;;11.60;99.90;;;;;;4711316;30;20059;-76
2021/05/17 05:39:51;;;;;;;9.13;4.53;;;11.60;99.90;;;;;;4727353;30;20488;-76
2021/05/17 05:42:17;;;;;;;8.00;4.75;;;11.60;99.90;;;;;;4726529;30;20056;-76
2021/05/17 05:44:48;;;;;;;6.43;3.95;;;11.70;99.90;;;;;;4742241;30;20056;-77
2021/05/17 05:47:16;;;;;;;6.93;3.67;;;11.70;99.90;;;;;;4711539;30;20067;-76
2021/05/17 05:49:48;;;;;;;8.32;4.68;;;11.70;99.90;;;;;;4730726;30;20069;-76
2021/05/17 05:52:16;;;;;;;6.47;4.25;;;11.70;99.90;;;;;;4725947;30;20060;-76
2021/05/17 05:54:44;;;;;;;7.03;3.40;;;11.70;99.90;;;;;;4726422;30;20035;-76
2021/05/17 05:57:11;;;;;;;5.68;4.25;;;11.70;99.90;;;;;;4715686;30;20051;-76
2021/05/17 05:59:37;;;;;;;5.95;3.97;;;11.60;99.90;;;;;;4726920;30;20060;-76
2021/05/17 06:02:04;;;;;;;6.32;3.85;;;11.60;99.90;;;;;;4709156;30;20059;-76
2021/05/17 06:04:30;;;;;;;10.05;5.07;;;11.60;99.90;;;;;;4698146;30;20409;-76
2021/05/17 06:06:57;;;;;;;7.22;4.47;;;11.50;99.90;;;;;;4712534;30;20053;-78
2021/05/17 06:09:24;;;;;;;6.90;3.88;;;11.50;99.90;;;;;;4741389;30;20048;-76
2021/05/17 06:11:50;;;;;;;6.60;4.43;;;11.50;99.90;;;;;;4741154;30;20063;-76
2021/05/17 06:14:17;;;;;;;7.53;4.70;;;11.50;99.90;;;;;;4730714;30;20052;-76
2021/05/17 06:16:44;;;;;;;7.32;5.30;;;11.50;99.90;;;;;;4722320;30;20432;-76
2021/05/17 06:19:11;;;;;;;6.63;5.25;;;11.50;99.90;;;;;;4702519;30;21092;-76
2021/05/17 06:21:37;;;;;;;8.40;5.45;;;11.50;99.90;;;;;;4717591;30;20060;-76
2021/05/17 06:24:04;;;;;;;11.30;6.57;;;11.50;99.90;;;;;;4730522;30;20064;-76
2021/05/17 06:26:32;;;;;;;9.18;5.50;;;11.60;99.90;;;;;;4728069;30;20059;-76
2021/05/17 06:28:58;;;;;;;9.77;5.65;;;11.70;99.90;;;;;;4730808;30;20063;-77
2021/05/17 06:31:25;;;;;;;8.07;5.53;;;11.70;99.90;;;;;;4728973;30;20048;-77
2021/05/17 06:33:52;;;;;;;11.00;6.45;;;11.70;99.90;;;;;;4745285;30;20067;-76
2021/05/17 06:36:19;;;;;;;10.43;6.18;;;11.70;99.90;;;;;;4730232;30;20051;-76
2021/05/17 06:38:45;;;;;;;11.70;6.55;;;11.70;99.90;;;;;;4746386;30;20063;-77
2021/05/17 06:41:12;;;;;;;10.18;5.40;;;11.70;99.90;;;;;;4745523;30;20056;-77
2021/05/17 06:43:39;;;;;;;12.40;6.45;;;11.80;99.90;;;;;;4719633;30;20055;-77
2021/05/17 06:46:09;;;;;;;9.15;6.55;;;11.80;99.90;;;;;;4731127;30;20132;-76
2021/05/17 06:48:42;;;;;;;10.35;7.32;;;11.80;99.90;;;;;;4745776;30;20040;-77
2021/05/17 06:51:18;;;;;;;10.02;6.65;;;12.00;99.90;;;;;;4726427;30;20428;-83
2021/05/17 06:53:47;;;;;;;11.98;6.13;;;12.00;99.90;;;;;;4720088;30;20048;-83
2021/05/17 06:56:27;;;;;;;11.30;6.50;;;12.10;99.90;;;;;;4719341;30;20054;-83
2021/05/17 06:58:56;;;;;;;8.30;6.05;;;12.10;99.90;;;;;;4732501;30;20064;-83
2021/05/17 07:01:25;;;;;;;12.82;6.40;;;12.00;99.90;;;;;;4728090;30;20044;-83
2021/05/17 07:03:53;;;;;;;9.70;5.85;;;12.10;99.90;;;;;;4734850;30;20056;-83
2021/05/17 07:06:23;;;;;;;8.50;6.05;;;12.10;99.90;;;;;;4744553;30;20028;-82
2021/05/17 07:14:10;;;;;;;11.20;6.32;;;12.30;99.90;;;;;;4746013;30;20059;-82
2021/05/17 07:16:37;;;;;;;7.00;5.60;;;12.40;99.90;;;;;;4744698;30;20047;-82
2021/05/17 07:19:04;;;;;;;8.65;6.10;;;12.50;99.90;;;;;;4730421;30;20044;-82
2021/05/17 07:24:16;;;;;;;10.60;6.32;;;12.60;99.90;;;;;;4745003;30;20049;-82
2021/05/17 07:26:42;;;;;;;7.60;5.65;;;12.70;99.90;;;;;;4729208;30;20052;-81
2021/05/17 07:29:11;;;;;;;10.30;5.80;;;12.70;99.90;;;;;;4745160;30;20063;-81
2021/05/17 07:31:37;;;;;;;11.98;5.82;;;12.70;99.90;;;;;;4744387;30;20060;-81
2021/05/17 07:34:04;;;;;;;10.35;5.82;;;12.70;99.90;;;;;;4745784;30;20048;-81
2021/05/17 07:36:31;;;;;;;12.63;5.30;;;12.70;99.90;;;;;;4744564;30;20036;-81
2021/05/17 07:38:57;;;;;;;9.57;5.50;;;12.80;99.90;;;;;;4743674;30;20048;-81
2021/05/17 07:41:24;;;;;;;7.72;4.70;;;12.80;99.90;;;;;;4744570;30;20404;-81
2021/05/17 07:43:51;;;;;;;9.73;4.50;;;12.80;99.90;;;;;;4746691;30;20067;-80
2021/05/17 07:46:18;;;;;;;8.27;4.50;;;12.90;99.90;;;;;;4744181;30;20040;-80
2021/05/17 07:51:29;;;;;;;10.05;4.63;;;12.90;99.90;;;;;;4726704;30;20371;-81
2021/05/17 07:53:56;;;;;;;9.85;4.60;;;12.90;99.90;;;;;;4745815;30;20048;-81
2021/05/17 07:56:23;;;;;;;7.80;5.10;;;12.90;99.90;;;;;;4728940;30;20408;-75
2021/05/17 07:58:51;;;;;;;7.70;3.90;;;13.00;99.90;;;;;;4745070;30;20044;-75
2021/05/17 08:01:18;;;;;;;8.50;4.40;;;13.10;99.90;;;;;;4729982;30;20112;-75
2021/05/17 08:03:45;;;;;;;9.40;3.78;;;13.10;99.90;;;;;;4745412;30;20036;-75
2021/05/17 08:06:11;;;;;;;6.85;4.28;;;13.00;99.90;;;;;;4725641;30;20052;-75
2021/05/17 08:08:38;;;;;;;7.13;3.72;;;13.10;99.90;;;;;;4743854;30;20136;-75
2021/05/17 08:11:04;;;;;;;11.05;4.45;;;13.10;99.90;;;;;;4743040;30;20044;-75
2021/05/17 08:13:31;;;;;;;6.88;3.92;;;13.10;99.90;;;;;;4745061;30;20048;-75
2021/05/17 08:15:57;;;;;;;10.73;4.53;;;13.20;99.90;;;;;;4742226;30;20401;-80
2021/05/17 08:18:24;;;;;;;12.30;4.78;;;13.20;99.90;;;;;;4745576;30;20617;-80
2021/05/17 08:20:50;;;;;;;7.68;3.80;;;13.20;99.90;;;;;;4741584;30;20063;-80
2021/05/17 08:23:17;;;;;;;6.03;4.22;;;13.30;99.90;;;;;;4744077;30;20048;-80
2021/05/17 08:25:46;;;;;;;10.52;4.90;;;13.40;99.90;;;;;;4730573;30;20048;-80
2021/05/17 08:28:13;;;;;;;8.13;3.80;;;13.50;99.90;;;;;;4729091;30;20044;-80
2021/05/17 08:30:42;;;;;;;6.22;4.07;;;13.80;99.90;;;;;;4743538;30;20063;-80
2021/05/17 08:33:12;;;;;;;8.40;3.97;;;13.90;99.90;;;;;;4745720;30;20065;-80
2021/05/17 08:35:40;;;;;;;6.68;3.47;;;14.10;99.90;;;;;;4726763;30;20048;-79
2021/05/17 08:38:07;;;;;;;10.13;4.88;;;14.30;99.90;;;;;;4744630;30;20056;-80
2021/05/17 08:40:39;;;;;;;4.55;2.78;;;14.40;99.90;;;;;;4739915;30;20055;-80
2021/05/17 08:43:06;;;;;;;6.50;3.15;;;14.40;99.90;;;;;;4741614;30;20040;-80
2021/05/17 08:45:34;;;;;;;11.70;3.63;;;14.40;99.90;;;;;;4732667;30;20036;-80
2021/05/17 08:48:01;;;;;;;8.07;3.08;;;14.40;99.90;;;;;;4728463;30;20631;-79
2021/05/17 08:50:27;;;;;;;7.57;3.30;;;14.50;99.90;;;;;;4742383;30;20943;-79
2021/05/17 08:52:54;;;;;;;7.47;3.58;;;14.60;99.90;;;;;;4745796;30;20512;-80
2021/05/17 08:55:21;;;;;;;7.82;3.00;;;14.60;99.90;;;;;;4743342;30;20041;-80
2021/05/17 08:57:48;;;;;;;4.53;2.10;;;14.50;99.90;;;;;;4743938;30;20047;-80
2021/05/17 09:00:20;;;;;;;6.25;2.45;;;14.30;99.90;;;;;;4726728;30;20052;-81
2021/05/17 09:02:47;;;;;;;6.75;3.03;;;14.10;99.90;;;;;;4728400;30;20040;-80
2021/05/17 09:05:20;;;;;;;4.88;3.15;;;14.20;99.90;;;;;;4739625;30;20059;-80
2021/05/17 09:07:50;;;;;;;;;;;14.40;99.90;;;;;;4741827;30;20063;-79
2021/05/17 09:10:22;;;;;;;8.77;4.07;;;14.60;99.90;;;;;;4741725;30;19922;-80
2021/05/17 09:13:09;;;;;;;9.32;3.20;;;14.80;99.90;;;;;;4741166;30;20405;-79
2021/05/17 09:15:40;;;;;;;5.15;2.55;;;14.80;99.90;;;;;;4740377;30;20059;-80
2021/05/17 09:18:27;;;;;;;5.70;2.97;;;14.80;99.90;;;;;;4744116;30;20032;-80
2021/05/17 09:20:56;;;;;;;5.47;2.90;;;14.90;99.90;;;;;;4739536;30;20068;-80
2021/05/17 09:23:26;;;;;;;5.32;3.05;;;15.20;99.90;;;;;;4743969;30;20052;-79
2021/05/17 09:25:58;;;;;;;5.80;3.03;;;15.50;99.90;;;;;;4729818;30;20045;-80
2021/05/17 09:28:31;;;;;;;6.00;3.20;;;15.60;99.90;;;;;;4743851;30;20059;-80
2021/05/17 09:31:06;;;;;;;5.45;2.88;;;15.70;99.90;;;;;;4741632;30;20489;-79
2021/05/17 09:33:50;;;;;;;7.43;4.07;;;16.00;99.90;;;;;;4742454;30;20408;-80
2021/05/17 09:36:39;;;;;;;7.05;3.05;;;16.30;99.90;;;;;;4713019;30;20055;-79
2021/05/17 09:39:11;;;;;;;6.20;3.13;;;16.50;99.90;;;;;;4726300;30;20052;-79
2021/05/17 09:41:48;;;;;;;6.57;3.30;;;16.70;99.90;;;;;;4741156;30;20060;-80
2021/05/17 09:44:17;;;;;;;4.85;2.50;;;16.80;99.90;;;;;;4744770;30;20047;-79
2021/05/17 09:47:05;;;;;;;3.78;1.98;;;16.90;99.90;;;;;;4741548;30;20048;-79
2021/05/17 09:49:48;;;;;;;5.70;2.33;;;16.90;99.90;;;;;;4741057;30;20485;-79
2021/05/17 09:52:28;;;;;;;7.68;2.10;;;16.70;99.90;;;;;;4741090;30;20063;-79
2021/05/17 09:55:05;;;;;;;6.72;2.00;;;16.50;99.90;;;;;;4741115;30;20043;-80
2021/05/17 09:57:42;;;;;;;5.18;2.15;;;16.40;99.90;;;;;;4745137;30;20048;-79
2021/05/17 10:00:18;;;;;;;6.57;2.33;;;16.40;99.90;;;;;;4739969;30;20055;-79
2021/05/17 10:02:47;;;;;;;8.18;2.65;;;16.50;99.90;;;;;;4743336;30;20067;-79
2021/05/17 10:05:30;;;;;;;4.82;1.90;;;16.80;99.90;;;;;;4741602;30;20075;-79
2021/05/17 10:08:01;;;;;;;4.53;2.20;;;17.10;99.90;;;;;;4743545;30;20032;-79
2021/05/17 10:10:28;;;;;;;3.38;1.95;;;17.20;99.90;;;;;;4741989;30;20045;-79
2021/05/17 10:13:01;;;;;;;5.03;1.58;;;17.20;99.90;;;;;;4718644;30;20051;-79
2021/05/17 10:15:33;;;;;;;3.70;1.40;;;17.10;99.90;;;;;;4726883;30;20489;-79
2021/05/17 10:17:59;;;;;;;3.90;1.50;;;17.10;99.90;;;;;;4743302;30;20063;-79
2021/05/17 10:20:28;;;;;;;4.28;1.65;;;17.00;99.90;;;;;;4741629;30;20059;-79
2021/05/17 10:22:56;;;;;;;3.47;1.52;;;16.90;99.50;;;;;;4742164;30;20495;-79
2021/05/17 10:25:27;;;;;;;3.45;1.30;;;16.80;99.00;;;;;;4742270;30;20504;-79
2021/05/17 10:27:58;;;;;;;6.65;1.58;;;16.80;99.00;;;;;;4742263;30;20392;-79
2021/05/17 10:30:29;;;;;;;3.70;1.33;;;16.90;99.00;;;;;;4740762;30;20071;-79
2021/05/17 10:33:01;;;;;;;3.83;1.38;;;17.00;98.70;;;;;;4732972;30;20044;-81
2021/05/17 10:35:48;;;;;;;2.35;1.58;;;17.10;98.80;;;;;;4728034;30;20495;-79
2021/05/17 10:41:17;;;;;;;4.53;1.38;;;17.80;97.70;;;;;;4740794;30;20508;-79
2021/05/17 10:46:34;;;;;;;5.95;1.90;;;18.00;96.60;;;;;;4730077;30;20063;-80
2021/05/17 10:46:50;;;;;;;3.97;1.27;;;18.10;96.10;;;;;;4737952;30;20464;-79
2021/05/17 10:49:29;;;;;;;3.63;1.48;;;18.00;95.00;;;;;;4742857;30;20036;-79
2021/05/17 10:52:05;;;;;;;6.30;1.80;;;17.90;94.80;;;;;;4724590;30;20044;-79
2021/05/17 10:54:41;;;;;;;2.83;0.80;;;17.70;94.50;;;;;;4741756;30;20596;-80
2021/05/17 10:57:20;;;;;;;2.15;0.75;;;17.40;94.70;;;;;;4731837;30;20032;-79
2021/05/17 11:02:38;;;;;;;1.83;0.73;;;17.00;94.80;;;;;;4745843;30;20055;-80
2021/05/17 11:05:19;;;;;;;2.38;0.77;;;16.80;94.90;;;;;;4735593;30;20056;-80
2021/05/17 11:08:01;;;;;;;4.00;1.55;;;16.50;95.30;;;;;;4720566;30;20064;-80
2021/05/17 11:10:33;;;;;;;3.00;0.90;;;16.30;95.80;;;;;;4726508;30;20625;-81
2021/05/17 11:13:03;;;;;;;1.75;1.02;;;16.10;96.70;;;;;;4733347;30;20054;-81
2021/05/17 11:15:57;;;;;;;2.35;1.10;;;16.00;97.40;;;;;;4733989;30;20059;-79
2021/05/17 11:18:28;;;;;;;6.22;0.95;;;16.00;98.00;;;;;;4731942;30;20615;-79
2021/05/17 11:20:57;;;;;;;6.30;1.58;;;16.20;98.70;;;;;;4732242;30;20036;-79
2021/05/17 11:23:26;;;;;;;4.18;0.93;;;16.60;98.80;;;;;;4746028;30;20044;-79
2021/05/17 11:26:02;;;;;;;2.40;1.00;;;17.20;98.30;;;;;;4744802;30;20044;-79
2021/05/17 11:28:37;;;;;;;3.10;1.10;;;17.70;97.80;;;;;;4743822;30;20055;-79
2021/05/17 11:33:56;;;;;;;3.50;1.13;;;18.90;96.50;;;;;;4744112;30;20044;-79
2021/05/17 11:36:27;;;;;;;3.65;1.08;;;19.10;95.20;;;;;;4743663;30;20044;-79
2021/05/17 11:39:18;;;;;;;1.85;0.82;;;19.30;94.60;;;;;;4744068;30;20052;-79
2021/05/17 11:42:06;;;;;;;2.80;0.82;;;19.50;94.40;;;;;;4744009;30;20056;-79
2021/05/17 11:44:56;;;;;;;3.40;1.10;;;19.70;93.90;;;;;;4743631;30;20056;-79
2021/05/17 11:47:25;;;;;;;2.58;0.80;;;19.90;93.60;;;;;;4729486;30;20044;-79
2021/05/17 11:49:54;;;;;;;2.03;0.60;;;20.00;93.40;;;;;;4743917;30;20040;-79
2021/05/17 11:52:29;;;;;;;1.92;0.57;;;20.10;93.00;;;;;;4742466;30;20493;-79
2021/05/17 11:54:58;;;;;;;1.70;0.63;;;19.90;91.90;;;;;;4743534;30;20051;-79
2021/05/17 11:57:35;;;;;;;2.38;0.70;;;19.80;91.60;;;;;;4716940;30;20044;-79
2021/05/17 12:00:17;;;;;;;1.55;0.65;;;19.90;91.80;;;;;;4742217;30;20044;-79
2021/05/17 12:02:48;;;;;;;1.95;0.73;;;20.70;91.50;;;;;;4743744;30;20036;-79
2021/05/17 12:05:15;;;;;;;2.90;0.90;;;21.30;89.60;;;;;;4742347;30;20055;-79
2021/05/17 12:07:47;;;;;;;1.60;0.40;;;21.50;87.90;;;;;;4742206;30;20048;-79
2021/05/17 12:10:18;;;;;;;0.93;0.40;;;21.80;86.50;;;;;;4726321;30;20074;-79
2021/05/17 12:12:45;;;;;;;1.38;0.40;;;22.20;86.20;;;;;;4744305;30;20036;-79
2021/05/17 12:15:16;;;;;;;1.02;0.50;;;22.90;84.40;;;;;;4743127;30;20067;-79
2021/05/17 12:17:43;;;;;;;0.88;0.30;;;23.40;80.00;;;;;;4744219;30;20039;-79
2021/05/17 12:20:12;;;;;;;2.15;0.65;;;23.90;79.30;;;;;;4702894;30;20417;-80
2021/05/17 12:22:43;;;;;;;1.83;0.60;;;24.30;76.50;;;;;;4744191;30;20054;-80
2021/05/17 12:25:29;;;;;;;1.23;0.50;;;24.10;75.20;;;;;;4742898;30;20048;-81
2021/05/17 12:27:55;;;;;;;3.03;0.93;;;23.60;74.30;;;;;;4745081;30;20048;-80
2021/05/17 12:30:24;;;;;;;2.05;0.60;;;23.00;71.10;;;;;;4741755;30;20055;-79
2021/05/17 12:33:01;;;;;;;2.00;1.08;;;22.30;74.10;;;;;;4731344;30;20051;-80
2021/05/17 12:35:39;;;;;;;3.67;0.60;;;21.60;75.90;;;;;;4741520;30;20051;-80
2021/05/17 12:38:19;;;;;;;2.65;0.52;;;20.90;77.00;;;;;;4731497;30;20047;-81
2021/05/17 12:40:47;;;;;;;2.17;0.50;;;20.10;79.60;;;;;;4742566;30;20048;-81
2021/05/17 12:43:24;;;;;;;2.05;0.88;;;19.40;81.60;;;;;;4744474;30;20035;-80
2021/05/17 12:46:04;;;;;;;2.35;0.70;;;18.90;84.30;;;;;;4730697;30;20481;-80
2021/05/17 12:48:43;;;;;;;1.35;0.60;;;18.70;84.40;;;;;;4745221;30;20036;-80
2021/05/17 12:51:18;;;;;;;1.25;0.80;;;18.60;84.80;;;;;;4743010;30;20040;-81
2021/05/17 12:53:46;;;;;;;2.08;1.20;;;18.40;85.60;;;;;;4727989;30;20645;-80
2021/05/17 12:56:25;;;;;;;1.45;0.80;;;18.20;86.30;;;;;;4735241;30;20048;-81
2021/05/17 12:59:18;;;;;;;1.38;0.50;;;17.90;86.50;;;;;;4744085;30;20044;-80
2021/05/17 13:01:45;;;;;;;1.17;0.50;;;17.70;86.30;;;;;;4743419;30;20056;-81
2021/05/17 13:04:23;;;;;;;1.00;0.50;;;17.50;85.50;;;;;;4727968;30;20104;-81
2021/05/17 13:07:02;;;;;;;1.25;0.75;;;17.30;86.20;;;;;;4745878;30;20044;-81
2021/05/17 13:09:32;;;;;;;1.95;1.02;;;17.20;87.80;;;;;;4734313;30;20408;-81
2021/05/17 13:12:00;;;;;;;3.95;2.33;;;17.30;89.80;;;;;;4730844;30;20496;-81
2021/05/17 13:14:27;;;;;;;2.63;1.83;;;17.70;89.80;;;;;;4713708;30;20044;-81
2021/05/17 13:16:54;;;;;;;3.03;1.67;;;17.90;89.50;;;;;;4743024;30;20032;-81
2021/05/17 13:19:42;;;;;;;1.95;1.50;;;18.20;90.00;;;;;;4731165;30;20048;-80
2021/05/17 13:23:03;;;;;;;1.38;0.90;;;18.80;88.50;;;;;;4740232;30;20043;-80
2021/05/17 13:31:13;;;;;;;2.22;0.70;;;22.60;80.20;;;;;;4743123;30;19951;-81
2021/05/17 13:33:41;;;;;;;2.65;1.00;;;23.40;74.00;;;;;;4740811;30;20508;-80
2021/05/17 13:36:15;;;;;;;1.67;0.90;;;23.90;70.40;;;;;;4728689;30;20051;-80